Time;durP1;ratioP1;P1;durP2;ratioP2;P2;SDS_P1;SDS_P2;PMS_P1;PMS_P2;Temp;Humidity;BMP_temperature;BMP_pressure;BME280_temperature;BME280_humidity;BME280_pressure;Samples;Min_cycle;Max_cycle;Signal;HPM_P1;HPM_P2
2023/10/08 00:01:13;;;;;;;10.88;4.22;;;19.40;99.90;;;;;;5073502;28;20472;-85
2023/10/08 00:03:40;;;;;;;8.05;3.70;;;19.40;99.90;;;;;;5072810;28;20033;-85
2023/10/08 00:06:06;;;;;;;12.68;3.95;;;19.40;99.90;;;;;;5056105;28;20076;-85
2023/10/08 00:08:33;;;;;;;9.50;3.95;;;19.40;99.90;;;;;;5072424;28;20611;-85
2023/10/08 00:11:05;;;;;;;8.57;3.30;;;19.40;99.90;;;;;;5058323;28;20033;-85
2023/10/08 00:13:33;;;;;;;11.23;3.78;;;19.40;99.90;;;;;;5090644;28;20028;-85
2023/10/08 00:16:01;;;;;;;12.88;4.88;;;19.30;99.90;;;;;;5068121;28;20526;-85
2023/10/08 00:18:27;;;;;;;8.30;3.45;;;19.30;99.90;;;;;;5042065;28;20020;-85
2023/10/08 00:21:15;;;;;;;8.45;3.55;;;19.30;99.90;;;;;;5059170;28;20028;-85
2023/10/08 00:23:42;;;;;;;11.70;4.15;;;19.40;99.90;;;;;;5062275;28;20042;-86
2023/10/08 00:26:08;;;;;;;8.18;3.92;;;19.40;99.90;;;;;;5059350;28;20024;-85
2023/10/08 00:28:34;;;;;;;8.65;3.70;;;19.30;99.90;;;;;;5073285;28;20028;-85
2023/10/08 00:31:11;;;;;;;8.90;4.05;;;19.30;99.90;;;;;;5076230;28;20056;-85
2023/10/08 00:33:37;;;;;;;13.90;5.00;;;19.30;99.90;;;;;;5075508;28;20036;-85
2023/10/08 00:36:17;;;;;;;10.75;4.78;;;19.30;99.90;;;;;;5093654;28;21162;-85
2023/10/08 00:38:44;;;;;;;10.77;4.25;;;19.30;99.90;;;;;;5063359;28;20375;-85
2023/10/08 00:41:15;;;;;;;9.13;4.20;;;19.30;99.90;;;;;;5075395;28;20088;-85
2023/10/08 00:43:42;;;;;;;15.07;4.75;;;19.30;99.90;;;;;;5059049;28;20052;-85
2023/10/08 00:46:30;;;;;;;17.17;4.45;;;19.20;99.90;;;;;;5071083;28;20056;-85
2023/10/08 00:48:58;;;;;;;11.48;4.40;;;19.20;99.90;;;;;;5065165;28;20024;-85
2023/10/08 00:51:40;;;;;;;8.50;4.28;;;19.20;99.90;;;;;;5075484;28;20020;-85
2023/10/08 00:54:07;;;;;;;8.70;4.15;;;19.30;99.90;;;;;;5094037;28;20452;-85
2023/10/08 00:56:50;;;;;;;11.88;4.28;;;19.30;99.90;;;;;;5058790;28;20031;-85
2023/10/08 00:59:16;;;;;;;11.35;4.35;;;19.20;99.90;;;;;;5075478;28;20500;-85
2023/10/08 01:01:51;;;;;;;12.02;4.43;;;19.20;99.90;;;;;;5056074;28;20461;-85
2023/10/08 01:04:27;;;;;;;10.80;4.03;;;19.20;99.90;;;;;;5077560;28;20016;-85
2023/10/08 01:07:01;;;;;;;11.60;4.60;;;19.20;99.90;;;;;;5064673;28;20037;-84
2023/10/08 01:09:37;;;;;;;10.55;4.47;;;19.30;99.90;;;;;;5074859;28;20032;-85
2023/10/08 01:14:47;;;;;;;14.75;4.38;;;19.30;99.90;;;;;;5079424;28;20472;-85
2023/10/08 01:17:15;;;;;;;14.35;4.88;;;19.20;99.90;;;;;;5073287;28;20025;-85
2023/10/08 01:19:45;;;;;;;11.77;4.20;;;19.20;99.90;;;;;;5055369;28;20082;-85
2023/10/08 01:22:22;;;;;;;12.10;4.45;;;19.20;99.90;;;;;;5051356;28;20027;-85
2023/10/08 01:24:51;;;;;;;9.32;4.47;;;19.20;99.90;;;;;;5075194;28;20123;-85
2023/10/08 01:27:22;;;;;;;9.27;4.40;;;19.10;99.90;;;;;;5074999;28;20020;-85
2023/10/08 01:29:51;;;;;;;13.25;5.10;;;19.20;99.90;;;;;;5059416;28;20132;-85
2023/10/08 01:32:19;;;;;;;13.68;6.10;;;19.10;99.90;;;;;;5090259;28;20371;-85
2023/10/08 01:34:48;;;;;;;18.23;8.63;;;19.10;99.90;;;;;;5078648;28;20044;-85
2023/10/08 01:37:18;;;;;;;19.25;9.07;;;19.10;99.90;;;;;;5038712;28;20053;-85
2023/10/08 01:39:49;;;;;;;21.27;8.70;;;19.10;99.90;;;;;;5054793;28;20029;-85
2023/10/08 01:42:17;;;;;;;21.25;9.52;;;19.10;99.90;;;;;;5054805;28;20028;-85
2023/10/08 01:44:48;;;;;;;19.73;8.65;;;19.10;99.90;;;;;;5054702;28;20044;-85
2023/10/08 01:47:16;;;;;;;18.73;8.43;;;19.10;99.90;;;;;;5038756;28;20044;-85
2023/10/08 01:49:46;;;;;;;19.95;8.65;;;19.10;99.90;;;;;;5056922;28;20106;-84
2023/10/08 01:52:22;;;;;;;17.17;7.88;;;19.10;99.90;;;;;;5058838;28;20025;-85
2023/10/08 01:54:49;;;;;;;20.88;8.15;;;19.10;99.90;;;;;;5072997;28;20027;-85
2023/10/08 01:57:16;;;;;;;16.33;6.93;;;19.10;99.90;;;;;;5093159;28;20150;-85
2023/10/08 01:59:44;;;;;;;15.68;6.95;;;19.10;99.90;;;;;;5071157;28;20376;-84
2023/10/08 02:02:10;;;;;;;13.43;6.00;;;19.10;99.90;;;;;;5073970;28;20439;-85
2023/10/08 02:04:36;;;;;;;14.45;5.82;;;19.00;99.90;;;;;;5060952;28;20142;-85
2023/10/08 02:07:03;;;;;;;12.68;5.28;;;19.10;99.90;;;;;;5078164;28;20054;-85
2023/10/08 02:09:30;;;;;;;13.57;5.30;;;19.00;99.90;;;;;;5078395;28;20035;-85
2023/10/08 02:11:56;;;;;;;11.63;4.72;;;19.00;99.90;;;;;;5077497;28;20082;-85
2023/10/08 02:14:22;;;;;;;9.48;4.60;;;19.00;99.90;;;;;;5041704;28;20028;-85
2023/10/08 02:16:49;;;;;;;10.27;4.85;;;19.00;99.90;;;;;;5024310;28;20094;-85
2023/10/08 02:19:18;;;;;;;12.95;5.10;;;19.00;99.90;;;;;;5057715;28;20071;-85
2023/10/08 02:21:47;;;;;;;7.57;4.07;;;19.00;99.90;;;;;;5075382;28;20068;-84
2023/10/08 02:24:13;;;;;;;11.82;4.57;;;19.00;99.90;;;;;;5075564;28;20107;-85
2023/10/08 02:26:39;;;;;;;9.55;4.32;;;19.00;99.90;;;;;;5048131;28;20056;-85
2023/10/08 02:29:11;;;;;;;9.98;4.78;;;18.90;99.90;;;;;;5057788;28;20031;-85
2023/10/08 02:31:40;;;;;;;14.65;4.88;;;18.90;99.90;;;;;;5093008;28;20039;-85
2023/10/08 02:34:09;;;;;;;10.18;4.43;;;18.90;99.90;;;;;;5078382;28;20090;-85
2023/10/08 02:36:40;;;;;;;11.20;4.97;;;18.90;99.90;;;;;;5091048;28;20048;-85
2023/10/08 02:39:13;;;;;;;10.65;4.85;;;18.90;99.90;;;;;;5072206;28;20471;-85
2023/10/08 02:41:41;;;;;;;10.57;5.13;;;18.90;99.90;;;;;;5078273;28;20023;-85
2023/10/08 02:44:11;;;;;;;8.98;4.30;;;18.90;99.90;;;;;;5078692;28;20534;-85
2023/10/08 02:46:40;;;;;;;11.18;4.65;;;18.90;99.90;;;;;;5059334;28;20024;-85
2023/10/08 02:49:11;;;;;;;8.68;4.10;;;18.90;99.90;;;;;;5061763;28;20043;-85
2023/10/08 02:51:40;;;;;;;14.55;5.00;;;18.90;99.90;;;;;;5061021;28;20032;-85
2023/10/08 02:54:16;;;;;;;7.72;4.15;;;18.80;99.90;;;;;;5102628;28;20022;-85
2023/10/08 02:56:44;;;;;;;10.45;4.60;;;18.80;99.90;;;;;;5094496;28;20072;-85
2023/10/08 02:59:12;;;;;;;9.75;4.65;;;18.80;99.90;;;;;;5086256;28;20009;-84
2023/10/08 03:01:42;;;;;;;14.52;5.55;;;18.80;99.90;;;;;;5085436;28;20030;-83
2023/10/08 03:04:19;;;;;;;10.85;4.63;;;18.80;99.90;;;;;;5080866;28;20025;-82
2023/10/08 03:06:54;;;;;;;12.90;4.72;;;18.80;99.90;;;;;;5060345;28;20033;-85
2023/10/08 03:09:23;;;;;;;9.73;4.90;;;18.80;99.90;;;;;;5056931;28;20021;-85
2023/10/08 03:11:50;;;;;;;10.05;4.45;;;18.80;99.90;;;;;;5056315;28;20386;-85
2023/10/08 03:14:23;;;;;;;9.60;4.65;;;18.70;99.90;;;;;;5072237;28;20023;-85
2023/10/08 03:16:53;;;;;;;11.77;5.05;;;18.70;99.90;;;;;;5056408;28;20524;-85
2023/10/08 03:19:21;;;;;;;9.90;4.55;;;18.70;99.90;;;;;;5058396;28;20025;-84
2023/10/08 03:21:50;;;;;;;9.75;4.65;;;18.70;99.90;;;;;;5074484;28;20020;-85
2023/10/08 03:27:07;;;;;;;9.23;4.63;;;18.70;99.90;;;;;;5059327;28;20054;-85
2023/10/08 03:29:42;;;;;;;10.07;4.63;;;18.70;99.90;;;;;;5041104;28;20048;-85
2023/10/08 03:32:18;;;;;;;9.82;4.63;;;18.70;99.90;;;;;;5074466;28;20044;-85
2023/10/08 03:34:48;;;;;;;13.50;5.40;;;18.70;99.90;;;;;;5056366;28;20020;-85
2023/10/08 03:37:21;;;;;;;;;;;18.70;99.90;;;;;;5056412;28;20492;-85
2023/10/08 03:39:51;;;;;;;8.55;4.47;;;18.60;99.90;;;;;;5056135;28;20007;-85
2023/10/08 03:42:25;;;;;;;11.05;4.65;;;18.60;99.90;;;;;;5074126;28;20070;-85
2023/10/08 03:44:52;;;;;;;10.50;4.65;;;18.60;99.90;;;;;;5074139;28;20103;-85
2023/10/08 03:47:22;;;;;;;9.00;4.63;;;18.70;99.90;;;;;;5074111;28;20032;-85
2023/10/08 03:49:50;;;;;;;11.60;4.95;;;18.60;99.90;;;;;;5059832;28;20055;-84
2023/10/08 03:52:21;;;;;;;10.60;4.75;;;18.60;99.90;;;;;;5074459;28;20039;-85
2023/10/08 03:55:04;;;;;;;9.45;5.32;;;18.60;99.90;;;;;;5073396;28;20027;-85
2023/10/08 03:57:41;;;;;;;10.27;5.20;;;18.60;99.90;;;;;;5064557;28;20016;-85
2023/10/08 04:00:12;;;;;;;9.13;4.65;;;18.60;99.90;;;;;;5061102;28;20055;-85
2023/10/08 04:02:46;;;;;;;9.45;5.03;;;18.60;99.90;;;;;;5060041;28;20479;-85
2023/10/08 04:05:19;;;;;;;11.93;5.65;;;18.60;99.90;;;;;;5044240;28;20059;-85
2023/10/08 04:11:12;;;;;;;9.20;4.72;;;18.60;99.90;;;;;;5083212;28;20051;-85
2023/10/08 04:13:16;;;;;;;12.05;5.10;;;18.60;99.90;;;;;;5064936;28;20383;-85
2023/10/08 04:15:42;;;;;;;13.30;5.03;;;18.60;99.90;;;;;;5070388;28;20324;-85
2023/10/08 04:18:13;;;;;;;12.18;5.20;;;18.60;99.90;;;;;;5059414;28;20024;-84
2023/10/08 04:20:39;;;;;;;10.27;5.18;;;18.60;99.90;;;;;;5055349;28;20408;-85
2023/10/08 04:23:13;;;;;;;11.23;5.13;;;18.60;99.90;;;;;;5074693;28;20043;-85
2023/10/08 04:25:39;;;;;;;12.93;5.32;;;18.60;99.90;;;;;;5076139;28;20044;-85
2023/10/08 04:28:06;;;;;;;8.73;5.20;;;18.60;99.90;;;;;;5062041;28;20029;-85
2023/10/08 04:30:36;;;;;;;11.30;5.45;;;18.60;99.90;;;;;;5055840;28;20097;-84
2023/10/08 04:33:12;;;;;;;12.35;5.20;;;18.60;99.90;;;;;;5038837;28;20032;-85
2023/10/08 04:35:48;;;;;;;13.52;5.93;;;18.60;99.90;;;;;;5039633;28;20020;-85
2023/10/08 04:38:22;;;;;;;11.55;5.53;;;18.60;99.90;;;;;;5069032;28;20032;-85
2023/10/08 04:40:52;;;;;;;14.52;5.90;;;18.60;99.90;;;;;;5075701;28;20203;-85
2023/10/08 04:43:24;;;;;;;10.57;5.35;;;18.60;99.90;;;;;;5062612;28;20487;-85
2023/10/08 04:45:51;;;;;;;11.00;5.72;;;18.60;99.90;;;;;;5098153;28;20012;-85
2023/10/08 04:48:20;;;;;;;12.85;5.65;;;18.60;99.90;;;;;;5094916;28;20079;-84
2023/10/08 04:50:57;;;;;;;18.27;6.70;;;18.60;99.90;;;;;;5117169;28;20048;-83
2023/10/08 04:53:31;;;;;;;13.52;6.20;;;18.50;99.90;;;;;;5117191;28;20054;-84
2023/10/08 04:56:02;;;;;;;11.52;5.72;;;18.50;99.90;;;;;;5064549;28;20019;-85
2023/10/08 04:58:33;;;;;;;11.98;5.10;;;18.40;99.90;;;;;;5063614;28;20078;-85
2023/10/08 05:01:17;;;;;;;13.23;5.35;;;18.40;99.90;;;;;;5040052;28;20468;-85
2023/10/08 05:08:59;;;;;;;9.65;4.03;;;18.30;99.90;;;;;;5086555;28;20060;-84
2023/10/08 05:11:36;;;;;;;13.82;4.30;;;18.30;99.90;;;;;;5042194;28;20051;-85
2023/10/08 05:14:05;;;;;;;9.98;3.60;;;18.30;99.90;;;;;;5056898;28;20108;-84
2023/10/08 05:17:00;;;;;;;8.55;3.75;;;18.20;99.90;;;;;;5039167;28;20075;-85
2023/10/08 05:25:11;;;;;;;13.20;4.07;;;17.90;99.90;;;;;;5059332;28;20043;-84
2023/10/08 05:30:25;;;;;;;9.80;4.30;;;17.90;99.90;;;;;;5072878;28;20039;-85
2023/10/08 05:33:24;;;;;;;11.60;3.90;;;17.70;99.90;;;;;;5057396;28;20029;-85
2023/10/08 05:35:54;;;;;;;9.73;3.15;;;17.70;99.90;;;;;;5058075;28;20027;-85
2023/10/08 05:54:36;;;;;;;9.93;3.63;;;17.40;99.90;;;;;;5076346;28;20593;-84
2023/10/08 06:02:39;;;;;;;9.52;4.00;;;17.40;99.90;;;;;;5094251;28;20028;-84
2023/10/08 06:13:16;;;;;;;9.20;2.88;;;17.20;99.90;;;;;;5069656;28;20069;-84
2023/10/08 06:18:26;;;;;;;7.40;2.67;;;17.00;99.90;;;;;;5078088;28;20575;-85
2023/10/08 06:20:58;;;;;;;7.55;2.85;;;16.90;99.90;;;;;;5078391;28;20024;-84
2023/10/08 06:23:25;;;;;;;6.85;2.95;;;16.80;99.90;;;;;;5077330;28;20039;-85
2023/10/08 06:28:58;;;;;;;5.43;2.85;;;16.70;99.90;;;;;;5038004;28;20071;-84
2023/10/08 06:31:26;;;;;;;11.40;3.35;;;16.70;99.90;;;;;;5039375;28;20531;-85
2023/10/08 06:33:53;;;;;;;6.82;2.60;;;16.60;99.90;;;;;;5057803;28;20032;-82
2023/10/08 06:36:23;;;;;;;6.82;2.92;;;16.60;99.90;;;;;;5117124;28;20040;-84
2023/10/08 06:38:49;;;;;;;6.25;2.50;;;16.60;99.90;;;;;;5070072;28;20051;-82
2023/10/08 06:41:19;;;;;;;9.43;2.70;;;16.50;99.90;;;;;;5084806;28;20207;-84
2023/10/08 06:44:02;;;;;;;5.85;2.42;;;16.60;99.90;;;;;;5111769;28;20028;-82
2023/10/08 06:46:29;;;;;;;5.25;2.55;;;16.60;99.90;;;;;;5061860;28;20021;-84
2023/10/08 06:48:54;;;;;;;6.32;2.72;;;16.60;99.90;;;;;;5048285;28;20093;-83
2023/10/08 06:51:21;;;;;;;6.65;3.03;;;16.50;99.90;;;;;;5051287;28;20029;-83
2023/10/08 06:53:48;;;;;;;4.13;2.65;;;16.50;99.90;;;;;;5075208;28;20093;-83
2023/10/08 06:56:19;;;;;;;6.05;2.72;;;16.50;99.90;;;;;;5053706;28;20035;-83
2023/10/08 06:58:48;;;;;;;5.00;2.50;;;16.50;99.90;;;;;;5047930;28;20031;-84
2023/10/08 07:01:24;;;;;;;5.95;2.50;;;16.40;99.90;;;;;;5062112;28;20033;-85
2023/10/08 07:04:03;;;;;;;5.57;2.40;;;16.40;99.90;;;;;;5054835;28;20065;-84
2023/10/08 07:06:33;;;;;;;4.13;2.00;;;16.40;99.90;;;;;;5063214;28;20028;-83
2023/10/08 07:09:04;;;;;;;5.30;2.42;;;16.40;99.90;;;;;;5062702;28;20016;-84
2023/10/08 07:11:34;;;;;;;4.25;1.98;;;16.40;99.90;;;;;;5092090;28;20054;-84
2023/10/08 07:14:01;;;;;;;3.38;2.22;;;16.50;99.90;;;;;;5074817;28;20103;-84
2023/10/08 07:16:28;;;;;;;4.60;2.55;;;16.50;99.90;;;;;;5074866;28;20020;-83
2023/10/08 07:19:01;;;;;;;3.90;2.20;;;16.50;99.90;;;;;;5069006;28;20479;-84
2023/10/08 07:21:38;;;;;;;5.85;2.92;;;16.50;99.90;;;;;;5061214;28;20039;-84
2023/10/08 07:24:09;;;;;;;4.15;2.55;;;16.50;99.90;;;;;;5076842;28;20020;-84
2023/10/08 07:26:37;;;;;;;3.72;2.50;;;16.60;99.90;;;;;;5060737;28;20020;-84
2023/10/08 07:29:08;;;;;;;5.28;3.17;;;16.50;99.90;;;;;;5043789;28;20032;-83
2023/10/08 07:31:36;;;;;;;5.53;3.67;;;16.50;99.90;;;;;;5070759;28;20202;-83
2023/10/08 07:34:18;;;;;;;5.05;3.30;;;16.60;99.90;;;;;;5047963;28;20464;-83
2023/10/08 07:36:51;;;;;;;4.90;3.30;;;16.50;99.90;;;;;;5056402;28;20484;-83
2023/10/08 07:39:25;;;;;;;4.72;3.40;;;16.50;99.90;;;;;;5053065;28;20104;-83
2023/10/08 07:41:53;;;;;;;3.90;3.50;;;16.50;99.90;;;;;;5054616;28;20492;-84
2023/10/08 07:44:21;;;;;;;4.60;3.53;;;16.50;99.90;;;;;;5064691;28;20028;-84
2023/10/08 07:46:49;;;;;;;4.72;3.65;;;16.50;99.90;;;;;;5073006;28;20051;-84
2023/10/08 07:49:14;;;;;;;4.10;3.60;;;16.40;99.90;;;;;;5055640;28;20546;-84
2023/10/08 07:51:41;;;;;;;4.75;3.35;;;16.40;99.90;;;;;;5048571;28;20029;-84
2023/10/08 07:54:09;;;;;;;4.03;3.42;;;16.40;99.90;;;;;;5054394;28;20143;-83
2023/10/08 07:56:37;;;;;;;6.60;4.13;;;16.30;99.90;;;;;;5055517;28;20119;-83
2023/10/08 07:59:08;;;;;;;4.72;3.72;;;16.40;99.90;;;;;;5072854;28;20017;-83
2023/10/08 08:01:34;;;;;;;4.22;3.35;;;16.30;99.90;;;;;;5072950;28;20066;-84
2023/10/08 08:04:00;;;;;;;5.28;4.20;;;16.30;99.90;;;;;;5072897;28;20039;-83
2023/10/08 08:06:26;;;;;;;5.93;4.00;;;16.30;99.90;;;;;;5071167;28;20119;-84
2023/10/08 08:08:52;;;;;;;5.13;3.90;;;16.30;99.90;;;;;;5062198;28;20035;-83
2023/10/08 08:11:17;;;;;;;4.88;3.90;;;16.30;99.90;;;;;;5072838;28;20460;-84
2023/10/08 08:13:44;;;;;;;4.82;4.05;;;16.30;99.90;;;;;;5073638;28;20037;-83
2023/10/08 08:16:18;;;;;;;4.53;3.78;;;16.30;99.90;;;;;;5078722;28;20017;-83
2023/10/08 08:18:59;;;;;;;5.60;3.78;;;16.30;99.90;;;;;;5093889;28;20100;-83
2023/10/08 08:21:25;;;;;;;5.10;3.40;;;16.30;99.90;;;;;;5089393;28;20028;-83
2023/10/08 08:23:52;;;;;;;5.72;3.47;;;16.30;99.90;;;;;;5076904;28;20096;-80
2023/10/08 08:26:26;;;;;;;4.72;3.55;;;16.30;99.90;;;;;;5084698;28;20028;-84
2023/10/08 08:29:02;;;;;;;4.93;3.40;;;16.30;99.90;;;;;;5070702;28;20021;-83
2023/10/08 08:31:35;;;;;;;4.80;3.60;;;16.40;99.90;;;;;;5053927;28;20025;-84
2023/10/08 08:34:13;;;;;;;4.53;2.97;;;16.30;99.90;;;;;;5053920;28;20028;-84
2023/10/08 08:36:46;;;;;;;4.90;3.15;;;16.30;99.90;;;;;;5060961;28;20048;-84
2023/10/08 08:39:17;;;;;;;5.80;3.53;;;16.40;99.90;;;;;;5041918;28;20032;-84
2023/10/08 08:41:43;;;;;;;6.85;3.28;;;16.30;99.90;;;;;;5046008;28;20117;-84
2023/10/08 08:44:09;;;;;;;4.28;2.33;;;16.30;99.90;;;;;;5039115;28;20052;-84
2023/10/08 08:46:37;;;;;;;3.90;2.53;;;16.30;99.90;;;;;;5057229;28;20901;-84
2023/10/08 08:49:07;;;;;;;4.50;2.55;;;16.30;99.90;;;;;;5075186;28;20102;-84
2023/10/08 08:51:37;;;;;;;3.80;2.38;;;16.30;99.90;;;;;;5058706;28;20048;-84
2023/10/08 08:54:07;;;;;;;6.40;2.87;;;16.30;99.90;;;;;;5047722;28;20020;-84
2023/10/08 08:56:40;;;;;;;6.13;3.03;;;16.40;99.90;;;;;;5072083;28;20027;-84
2023/10/08 08:59:06;;;;;;;5.10;2.70;;;16.30;99.90;;;;;;5055489;28;20036;-84
2023/10/08 09:01:33;;;;;;;3.30;2.47;;;16.30;99.90;;;;;;5061599;28;20104;-84
2023/10/08 09:04:05;;;;;;;3.83;2.22;;;16.30;99.90;;;;;;5055662;28;20028;-85
2023/10/08 09:06:34;;;;;;;4.40;2.97;;;16.30;99.90;;;;;;5058837;28;20017;-86
2023/10/08 09:11:45;;;;;;;3.03;2.00;;;16.30;99.90;;;;;;5077873;28;20035;-83
2023/10/08 09:14:11;;;;;;;3.63;2.25;;;16.30;99.90;;;;;;5048659;28;20029;-84
2023/10/08 09:16:37;;;;;;;5.45;2.45;;;16.40;99.90;;;;;;5051814;28;20437;-83
2023/10/08 09:19:04;;;;;;;5.07;2.70;;;16.40;99.90;;;;;;5065105;28;20052;-83
2023/10/08 09:21:30;;;;;;;2.78;1.92;;;16.40;99.90;;;;;;5078124;28;20021;-84
2023/10/08 09:23:56;;;;;;;2.83;1.83;;;16.50;99.90;;;;;;5062037;28;20028;-84
2023/10/08 09:26:28;;;;;;;3.63;1.88;;;16.60;99.90;;;;;;5049861;28;20456;-84
2023/10/08 09:28:54;;;;;;;3.88;2.10;;;16.60;99.90;;;;;;5063569;28;20016;-84
2023/10/08 09:31:23;;;;;;;2.90;2.00;;;16.70;99.90;;;;;;5068068;28;20062;-84
2023/10/08 09:33:56;;;;;;;5.07;2.47;;;16.80;99.90;;;;;;5055245;28;20549;-83
2023/10/08 09:36:31;;;;;;;5.22;2.05;;;16.80;99.90;;;;;;5063062;28;20037;-84
2023/10/08 09:39:01;;;;;;;2.63;1.50;;;16.80;99.90;;;;;;5071415;28;20036;-84
2023/10/08 09:41:30;;;;;;;3.42;1.60;;;16.80;99.90;;;;;;5051148;28;20025;-83
2023/10/08 09:43:58;;;;;;;4.05;1.67;;;16.80;99.90;;;;;;5068145;28;20082;-84
2023/10/08 09:46:31;;;;;;;5.25;1.95;;;16.80;99.90;;;;;;5072332;28;20147;-84
2023/10/08 09:49:01;;;;;;;3.05;1.33;;;16.80;99.90;;;;;;5069771;28;20012;-84
2023/10/08 09:51:29;;;;;;;3.25;1.52;;;16.80;99.90;;;;;;5071467;28;20017;-83
2023/10/08 09:54:05;;;;;;;4.57;1.50;;;16.90;99.90;;;;;;5065275;28;20040;-83
2023/10/08 09:56:34;;;;;;;3.38;1.75;;;17.00;99.90;;;;;;5055614;28;20020;-84
2023/10/08 09:59:00;;;;;;;3.70;1.52;;;16.90;99.90;;;;;;5038761;28;20021;-84
2023/10/08 10:01:27;;;;;;;3.08;1.73;;;16.90;99.90;;;;;;5044629;28;20118;-85
2023/10/08 10:03:52;;;;;;;3.45;1.40;;;16.90;99.90;;;;;;5045243;28;20036;-84
2023/10/08 10:06:19;;;;;;;2.42;1.33;;;17.00;99.90;;;;;;5079922;28;20013;-85
2023/10/08 10:08:45;;;;;;;2.35;1.20;;;17.00;99.90;;;;;;5088476;28;20036;-83
2023/10/08 10:11:11;;;;;;;2.42;1.25;;;17.00;99.90;;;;;;5079259;28;20021;-83
2023/10/08 10:13:46;;;;;;;2.03;1.10;;;17.00;99.90;;;;;;5079018;28;20063;-84
2023/10/08 10:16:13;;;;;;;2.50;1.30;;;17.10;99.90;;;;;;5044644;28;20423;-84
2023/10/08 10:18:39;;;;;;;3.15;1.17;;;17.10;99.90;;;;;;5062373;28;20021;-85
2023/10/08 10:21:14;;;;;;;1.73;1.30;;;17.20;99.90;;;;;;5049168;28;20025;-84
2023/10/08 10:23:42;;;;;;;3.15;1.33;;;17.20;99.90;;;;;;5060311;28;20412;-84
2023/10/08 10:26:30;;;;;;;2.80;1.30;;;17.30;99.90;;;;;;5054497;28;20055;-84
2023/10/08 10:29:11;;;;;;;2.42;1.10;;;17.30;99.90;;;;;;5055996;28;20477;-84
2023/10/08 10:31:53;;;;;;;1.75;1.20;;;17.30;99.90;;;;;;5056739;28;20025;-84
2023/10/08 10:34:30;;;;;;;2.00;1.17;;;17.30;99.90;;;;;;5073412;28;20016;-85
2023/10/08 10:37:10;;;;;;;3.58;1.38;;;17.40;99.90;;;;;;5085027;28;20044;-86
2023/10/08 10:39:41;;;;;;;3.13;1.30;;;17.40;99.80;;;;;;5064418;28;20477;-84
2023/10/08 10:42:20;;;;;;;2.47;1.10;;;17.40;99.80;;;;;;5061531;28;20195;-84
2023/10/08 10:44:49;;;;;;;1.58;1.10;;;17.40;99.80;;;;;;5076997;28;20016;-84
2023/10/08 10:57:56;;;;;;;2.33;1.38;;;17.70;99.70;;;;;;5084386;28;20040;-84
2023/10/08 11:02:59;;;;;;;2.60;1.10;;;17.70;99.70;;;;;;5044341;28;20048;-84
2023/10/08 11:05:28;;;;;;;;;;;17.80;99.60;;;;;;5040879;28;20044;-83
2023/10/08 11:08:06;;;;;;;1.75;1.10;;;17.90;99.60;;;;;;5067518;28;19993;-83
2023/10/08 11:10:33;;;;;;;3.28;1.40;;;17.90;99.60;;;;;;5085742;28;20107;-83
2023/10/08 11:13:02;;;;;;;1.60;1.30;;;17.90;99.50;;;;;;5065179;28;20054;-83
2023/10/08 11:15:37;;;;;;;1.50;1.10;;;17.90;99.30;;;;;;5063504;28;20024;-83
2023/10/08 11:18:10;;;;;;;4.28;1.20;;;17.90;99.20;;;;;;5065574;28;20024;-83
2023/10/08 11:20:39;;;;;;;2.60;1.23;;;17.90;99.20;;;;;;5067181;28;20395;-83
2023/10/08 11:23:18;;;;;;;3.65;1.30;;;18.00;99.30;;;;;;5061379;28;20039;-83
2023/10/08 11:25:55;;;;;;;3.35;1.05;;;18.00;99.00;;;;;;5066495;28;20035;-84
2023/10/08 11:28:22;;;;;;;2.33;1.40;;;18.00;99.00;;;;;;5066881;28;20115;-83
2023/10/08 11:30:51;;;;;;;2.45;1.33;;;18.00;99.00;;;;;;5062449;28;20020;-84
2023/10/08 11:33:17;;;;;;;2.88;1.40;;;17.90;98.90;;;;;;5049199;28;20028;-83
2023/10/08 11:36:01;;;;;;;2.45;1.00;;;18.00;98.90;;;;;;5065717;28;20050;-83
2023/10/08 11:38:38;;;;;;;1.85;1.30;;;18.00;99.00;;;;;;5062300;28;20095;-83
2023/10/08 11:41:27;;;;;;;2.05;1.17;;;18.10;99.10;;;;;;5053922;28;20100;-84
2023/10/08 11:43:56;;;;;;;2.22;1.45;;;18.10;99.10;;;;;;5041769;28;20033;-84
2023/10/08 11:46:26;;;;;;;2.15;1.25;;;18.10;99.00;;;;;;5094366;28;20029;-83
2023/10/08 11:48:52;;;;;;;1.73;1.00;;;18.20;99.00;;;;;;5095877;28;20077;-85
2023/10/08 11:51:18;;;;;;;2.38;1.02;;;18.20;99.00;;;;;;5083242;28;20046;-85
2023/10/08 11:53:47;;;;;;;3.47;1.10;;;18.20;99.00;;;;;;5094549;28;20033;-84
2023/10/08 11:56:13;;;;;;;1.60;1.00;;;18.20;99.00;;;;;;5064750;28;20019;-84
2023/10/08 11:58:45;;;;;;;1.35;1.00;;;18.30;99.00;;;;;;5053325;28;20009;-85
2023/10/08 12:01:17;;;;;;;2.42;1.30;;;18.30;99.00;;;;;;5101388;28;20026;-84
2023/10/08 12:03:44;;;;;;;1.70;1.30;;;18.30;98.90;;;;;;5099487;28;20024;-85
2023/10/08 12:06:15;;;;;;;3.00;1.50;;;18.30;98.90;;;;;;5101281;28;20106;-85
2023/10/08 12:08:53;;;;;;;1.85;1.05;;;18.30;98.90;;;;;;5076482;28;20020;-85
2023/10/08 12:11:22;;;;;;;2.63;1.42;;;18.30;98.90;;;;;;5080915;28;20023;-84
2023/10/08 12:13:49;;;;;;;1.70;1.27;;;18.30;99.00;;;;;;5092621;28;20036;-85
2023/10/08 12:16:21;;;;;;;2.45;1.20;;;18.30;98.90;;;;;;5065963;28;20031;-85
2023/10/08 12:18:58;;;;;;;2.58;1.70;;;18.30;99.00;;;;;;5086561;28;20027;-84
2023/10/08 12:21:33;;;;;;;2.30;1.60;;;18.30;99.00;;;;;;5073093;28;20070;-85
2023/10/08 12:23:59;;;;;;;2.65;1.70;;;18.30;99.10;;;;;;5081562;28;20028;-85
2023/10/08 12:26:25;;;;;;;2.65;1.55;;;18.30;99.10;;;;;;5092607;28;20043;-85
2023/10/08 12:28:53;;;;;;;1.83;1.50;;;18.30;99.10;;;;;;5073511;28;20033;-85
2023/10/08 12:31:22;;;;;;;2.85;1.40;;;18.40;99.20;;;;;;5069564;28;20028;-85
2023/10/08 12:33:49;;;;;;;2.80;1.15;;;18.40;99.10;;;;;;5058213;28;20373;-84
2023/10/08 12:36:16;;;;;;;2.95;1.80;;;18.30;99.10;;;;;;5068429;28;20497;-83
2023/10/08 12:38:47;;;;;;;2.40;1.60;;;18.30;99.20;;;;;;5075887;28;20066;-84
2023/10/08 12:41:13;;;;;;;2.55;1.70;;;18.40;99.20;;;;;;5055507;28;20017;-84
2023/10/08 12:43:45;;;;;;;3.63;1.75;;;18.40;99.30;;;;;;5055565;28;20366;-84
2023/10/08 12:46:23;;;;;;;3.03;1.58;;;18.40;99.30;;;;;;5079487;28;20528;-83
2023/10/08 12:48:54;;;;;;;3.08;1.80;;;18.30;99.30;;;;;;5064139;28;20029;-85
2023/10/08 12:51:23;;;;;;;2.15;1.38;;;18.30;99.30;;;;;;5039188;28;20077;-85
2023/10/08 12:54:03;;;;;;;2.72;1.40;;;18.40;99.30;;;;;;5073139;28;20043;-85
2023/10/08 12:56:35;;;;;;;2.75;1.42;;;18.30;99.30;;;;;;5073223;28;20483;-85
2023/10/08 12:59:05;;;;;;;3.50;1.50;;;18.30;99.30;;;;;;5055206;28;20024;-85
2023/10/08 13:01:31;;;;;;;2.47;1.25;;;18.30;99.30;;;;;;5055087;28;20491;-84
2023/10/08 13:04:00;;;;;;;2.80;1.35;;;18.30;99.30;;;;;;5055195;28;20036;-84
2023/10/08 13:06:28;;;;;;;2.17;1.55;;;18.40;99.40;;;;;;5059524;28;20040;-85
2023/10/08 13:08:57;;;;;;;2.10;1.65;;;18.30;99.40;;;;;;5075295;28;20039;-85
2023/10/08 13:11:25;;;;;;;2.50;1.20;;;18.30;99.40;;;;;;5069175;28;20486;-84
2023/10/08 13:13:52;;;;;;;2.65;1.52;;;18.30;99.50;;;;;;5054960;28;20029;-84
2023/10/08 13:16:21;;;;;;;2.03;1.13;;;18.40;99.50;;;;;;5061394;28;20449;-85
2023/10/08 13:18:47;;;;;;;4.57;1.60;;;18.40;99.50;;;;;;5073313;28;20028;-85
2023/10/08 13:21:13;;;;;;;2.53;1.70;;;18.40;99.50;;;;;;5055934;28;20036;-84
2023/10/08 13:23:39;;;;;;;2.55;1.52;;;18.40;99.60;;;;;;5075033;28;20028;-84
2023/10/08 13:26:07;;;;;;;1.92;1.67;;;18.40;99.60;;;;;;5091164;28;20060;-84
2023/10/08 13:28:34;;;;;;;2.50;1.70;;;18.40;99.60;;;;;;5039644;28;20063;-84
2023/10/08 13:31:09;;;;;;;6.22;1.88;;;18.40;99.70;;;;;;5072604;28;20060;-84
2023/10/08 13:33:48;;;;;;;3.28;2.15;;;18.40;99.70;;;;;;5040127;28;20081;-85
2023/10/08 13:36:15;;;;;;;2.53;1.65;;;18.40;99.70;;;;;;5090308;28;20051;-85
2023/10/08 13:38:43;;;;;;;2.60;1.63;;;18.50;99.80;;;;;;5055497;28;20028;-85
2023/10/08 13:41:15;;;;;;;2.85;1.52;;;18.40;99.80;;;;;;5048766;28;20033;-84
2023/10/08 13:43:45;;;;;;;1.52;1.20;;;18.50;99.80;;;;;;5094388;28;20024;-86
2023/10/08 13:46:14;;;;;;;2.45;1.20;;;18.50;99.80;;;;;;5077579;28;20024;-85
2023/10/08 13:48:47;;;;;;;1.73;1.30;;;18.50;99.70;;;;;;5061553;28;20024;-85
2023/10/08 13:51:14;;;;;;;3.00;1.17;;;18.50;99.80;;;;;;5075911;28;20021;-84
2023/10/08 13:53:52;;;;;;;3.20;1.30;;;18.50;99.80;;;;;;5088625;28;20506;-85
2023/10/08 13:56:20;;;;;;;3.65;1.67;;;18.60;99.90;;;;;;5069914;28;20028;-85
2023/10/08 13:58:49;;;;;;;3.17;1.63;;;18.60;99.90;;;;;;5060352;28;20031;-85
2023/10/08 14:01:21;;;;;;;4.43;1.83;;;18.60;99.80;;;;;;5062511;28;20066;-84
2023/10/08 14:03:48;;;;;;;1.55;1.42;;;18.60;99.80;;;;;;5059051;28;20086;-84
2023/10/08 14:06:16;;;;;;;3.20;1.60;;;18.60;99.90;;;;;;5057945;28;20056;-83
2023/10/08 14:08:44;;;;;;;2.85;1.30;;;18.60;99.80;;;;;;5043101;28;20447;-83
2023/10/08 14:11:12;;;;;;;2.83;1.48;;;18.60;99.80;;;;;;5075712;28;20025;-83
2023/10/08 14:13:41;;;;;;;3.40;2.00;;;18.60;99.80;;;;;;5041517;28;20036;-83
2023/10/08 14:16:10;;;;;;;3.17;1.92;;;18.60;99.80;;;;;;5041543;28;20107;-83